sensor_id;sensor_type;location;lat;lon;timestamp;P1;durP1;ratioP1;P2;durP2;ratioP2
37309;SDS011;23195;47.744;7.358;2022-07-12T00:01:20;6.70;;;5.27;;
37309;SDS011;23195;47.744;7.358;2022-07-12T00:03:46;7.47;;;5.43;;
37309;SDS011;23195;47.744;7.358;2022-07-12T00:06:12;5.87;;;5.00;;
37309;SDS011;23195;47.744;7.358;2022-07-12T00:08:38;7.40;;;5.27;;
37309;SDS011;23195;47.744;7.358;2022-07-12T00:11:04;5.47;;;4.97;;
37309;SDS011;23195;47.744;7.358;2022-07-12T00:13:32;5.90;;;4.73;;
37309;SDS011;23195;47.744;7.358;2022-07-12T00:15:58;6.93;;;4.63;;
37309;SDS011;23195;47.744;7.358;2022-07-12T00:18:28;7.37;;;5.20;;
37309;SDS011;23195;47.744;7.358;2022-07-12T00:20:57;5.80;;;5.20;;
37309;SDS011;23195;47.744;7.358;2022-07-12T00:23:23;7.07;;;4.60;;
37309;SDS011;23195;47.744;7.358;2022-07-12T00:25:48;6.63;;;4.73;;
37309;SDS011;23195;47.744;7.358;2022-07-12T00:28:14;7.83;;;4.90;;
37309;SDS011;23195;47.744;7.358;2022-07-12T00:30:40;5.10;;;4.70;;
37309;SDS011;23195;47.744;7.358;2022-07-12T00:33:06;5.67;;;5.17;;
37309;SDS011;23195;47.744;7.358;2022-07-12T00:35:33;5.60;;;4.50;;
37309;SDS011;23195;47.744;7.358;2022-07-12T00:37:59;7.40;;;5.17;;
37309;SDS011;23195;47.744;7.358;2022-07-12T00:40:25;8.67;;;4.97;;
37309;SDS011;23195;47.744;7.358;2022-07-12T00:42:50;7.00;;;5.07;;
37309;SDS011;23195;47.744;7.358;2022-07-12T00:45:16;5.67;;;4.67;;
37309;SDS011;23195;47.744;7.358;2022-07-12T00:47:43;5.70;;;5.20;;
37309;SDS011;23195;47.744;7.358;2022-07-12T00:50:15;6.20;;;5.20;;
37309;SDS011;23195;47.744;7.358;2022-07-12T00:52:42;5.23;;;4.70;;
37309;SDS011;23195;47.744;7.358;2022-07-12T00:55:10;6.47;;;5.33;;
37309;SDS011;23195;47.744;7.358;2022-07-12T00:57:37;10.87;;;5.20;;
37309;SDS011;23195;47.744;7.358;2022-07-12T01:00:04;5.70;;;4.97;;
37309;SDS011;23195;47.744;7.358;2022-07-12T01:02:33;5.43;;;4.80;;
37309;SDS011;23195;47.744;7.358;2022-07-12T01:05:00;7.03;;;5.37;;
37309;SDS011;23195;47.744;7.358;2022-07-12T01:07:27;6.43;;;5.03;;
37309;SDS011;23195;47.744;7.358;2022-07-12T01:09:54;8.07;;;4.90;;
37309;SDS011;23195;47.744;7.358;2022-07-12T01:12:20;6.10;;;5.20;;
37309;SDS011;23195;47.744;7.358;2022-07-12T01:14:50;9.13;;;5.50;;
37309;SDS011;23195;47.744;7.358;2022-07-12T01:17:20;9.03;;;5.33;;
37309;SDS011;23195;47.744;7.358;2022-07-12T01:19:51;8.30;;;5.17;;
37309;SDS011;23195;47.744;7.358;2022-07-12T01:22:18;10.87;;;5.00;;
37309;SDS011;23195;47.744;7.358;2022-07-12T01:24:45;10.73;;;5.37;;
37309;SDS011;23195;47.744;7.358;2022-07-12T01:27:11;8.23;;;5.30;;
37309;SDS011;23195;47.744;7.358;2022-07-12T01:29:38;6.37;;;5.20;;
37309;SDS011;23195;47.744;7.358;2022-07-12T01:32:05;5.30;;;4.80;;
37309;SDS011;23195;47.744;7.358;2022-07-12T01:34:53;7.13;;;5.03;;
37309;SDS011;23195;47.744;7.358;2022-07-12T01:37:33;6.63;;;5.00;;
37309;SDS011;23195;47.744;7.358;2022-07-12T01:40:00;5.37;;;4.87;;
37309;SDS011;23195;47.744;7.358;2022-07-12T01:42:29;8.37;;;5.27;;
37309;SDS011;23195;47.744;7.358;2022-07-12T01:44:55;5.70;;;5.10;;
37309;SDS011;23195;47.744;7.358;2022-07-12T01:47:22;7.97;;;5.27;;
37309;SDS011;23195;47.744;7.358;2022-07-12T01:49:49;6.73;;;5.17;;
37309;SDS011;23195;47.744;7.358;2022-07-12T01:52:15;5.80;;;5.17;;
37309;SDS011;23195;47.744;7.358;2022-07-12T01:54:42;6.03;;;5.20;;
37309;SDS011;23195;47.744;7.358;2022-07-12T01:57:08;6.53;;;5.43;;
37309;SDS011;23195;47.744;7.358;2022-07-12T01:59:42;6.10;;;5.17;;
37309;SDS011;23195;47.744;7.358;2022-07-12T02:02:16;5.53;;;5.03;;
37309;SDS011;23195;47.744;7.358;2022-07-12T02:04:42;6.77;;;5.37;;
37309;SDS011;23195;47.744;7.358;2022-07-12T02:07:08;6.97;;;4.73;;
37309;SDS011;23195;47.744;7.358;2022-07-12T02:09:52;6.40;;;5.13;;
37309;SDS011;23195;47.744;7.358;2022-07-12T02:12:18;6.43;;;5.20;;
37309;SDS011;23195;47.744;7.358;2022-07-12T02:14:44;7.67;;;5.27;;
37309;SDS011;23195;47.744;7.358;2022-07-12T02:17:10;7.87;;;5.23;;
37309;SDS011;23195;47.744;7.358;2022-07-12T02:19:36;7.73;;;5.47;;
37309;SDS011;23195;47.744;7.358;2022-07-12T02:22:04;5.93;;;4.60;;
37309;SDS011;23195;47.744;7.358;2022-07-12T02:24:30;7.67;;;5.03;;
37309;SDS011;23195;47.744;7.358;2022-07-12T02:26:57;8.27;;;5.10;;
37309;SDS011;23195;47.744;7.358;2022-07-12T02:29:22;6.73;;;4.93;;
37309;SDS011;23195;47.744;7.358;2022-07-12T02:31:51;6.30;;;5.30;;
37309;SDS011;23195;47.744;7.358;2022-07-12T02:34:17;6.90;;;5.00;;
37309;SDS011;23195;47.744;7.358;2022-07-12T02:36:43;5.57;;;5.03;;
37309;SDS011;23195;47.744;7.358;2022-07-12T02:39:09;7.00;;;4.73;;
37309;SDS011;23195;47.744;7.358;2022-07-12T02:41:36;9.73;;;5.17;;
37309;SDS011;23195;47.744;7.358;2022-07-12T02:44:02;6.07;;;5.03;;
37309;SDS011;23195;47.744;7.358;2022-07-12T02:46:28;6.03;;;4.83;;
37309;SDS011;23195;47.744;7.358;2022-07-12T02:48:54;8.40;;;5.17;;
37309;SDS011;23195;47.744;7.358;2022-07-12T02:51:19;11.30;;;6.10;;
37309;SDS011;23195;47.744;7.358;2022-07-12T02:53:45;6.13;;;5.50;;
37309;SDS011;23195;47.744;7.358;2022-07-12T02:56:11;7.87;;;5.60;;
37309;SDS011;23195;47.744;7.358;2022-07-12T02:58:37;7.70;;;5.50;;
37309;SDS011;23195;47.744;7.358;2022-07-12T03:01:03;9.43;;;5.20;;
37309;SDS011;23195;47.744;7.358;2022-07-12T03:03:29;6.73;;;5.57;;
37309;SDS011;23195;47.744;7.358;2022-07-12T03:05:55;10.60;;;5.50;;
37309;SDS011;23195;47.744;7.358;2022-07-12T03:08:24;6.27;;;5.00;;
37309;SDS011;23195;47.744;7.358;2022-07-12T03:10:49;9.37;;;5.50;;
37309;SDS011;23195;47.744;7.358;2022-07-12T03:13:15;8.17;;;5.03;;
37309;SDS011;23195;47.744;7.358;2022-07-12T03:15:41;8.23;;;5.50;;
37309;SDS011;23195;47.744;7.358;2022-07-12T03:18:07;10.73;;;5.57;;
37309;SDS011;23195;47.744;7.358;2022-07-12T03:20:33;5.97;;;5.37;;
37309;SDS011;23195;47.744;7.358;2022-07-12T03:22:58;8.03;;;5.87;;
37309;SDS011;23195;47.744;7.358;2022-07-12T03:25:24;6.63;;;5.30;;
37309;SDS011;23195;47.744;7.358;2022-07-12T03:27:50;7.70;;;5.67;;
37309;SDS011;23195;47.744;7.358;2022-07-12T03:30:17;9.17;;;5.90;;
37309;SDS011;23195;47.744;7.358;2022-07-12T03:32:42;6.60;;;5.67;;
37309;SDS011;23195;47.744;7.358;2022-07-12T03:35:09;7.57;;;5.73;;
37309;SDS011;23195;47.744;7.358;2022-07-12T03:40:11;7.77;;;5.50;;
37309;SDS011;23195;47.744;7.358;2022-07-12T03:42:38;7.30;;;6.13;;
37309;SDS011;23195;47.744;7.358;2022-07-12T03:45:05;8.63;;;6.07;;
37309;SDS011;23195;47.744;7.358;2022-07-12T03:47:31;8.23;;;6.00;;
37309;SDS011;23195;47.744;7.358;2022-07-12T03:50:00;6.67;;;5.30;;
37309;SDS011;23195;47.744;7.358;2022-07-12T03:52:29;8.07;;;5.97;;
37309;SDS011;23195;47.744;7.358;2022-07-12T03:54:56;7.57;;;5.83;;
37309;SDS011;23195;47.744;7.358;2022-07-12T03:57:22;7.20;;;5.50;;
37309;SDS011;23195;47.744;7.358;2022-07-12T03:59:49;16.83;;;6.33;;
37309;SDS011;23195;47.744;7.358;2022-07-12T04:02:15;9.03;;;5.70;;
37309;SDS011;23195;47.744;7.358;2022-07-12T04:04:41;7.93;;;5.90;;
37309;SDS011;23195;47.744;7.358;2022-07-12T04:07:07;6.30;;;5.60;;
37309;SDS011;23195;47.744;7.358;2022-07-12T04:09:33;6.63;;;6.00;;
37309;SDS011;23195;47.744;7.358;2022-07-12T04:11:59;7.10;;;5.90;;
37309;SDS011;23195;47.744;7.358;2022-07-12T04:14:25;8.10;;;5.50;;
37309;SDS011;23195;47.744;7.358;2022-07-12T04:16:50;6.37;;;5.47;;
37309;SDS011;23195;47.744;7.358;2022-07-12T04:19:16;8.70;;;5.80;;
37309;SDS011;23195;47.744;7.358;2022-07-12T04:21:42;6.53;;;5.30;;
37309;SDS011;23195;47.744;7.358;2022-07-12T04:24:08;6.07;;;4.90;;
37309;SDS011;23195;47.744;7.358;2022-07-12T04:26:34;6.93;;;5.17;;
37309;SDS011;23195;47.744;7.358;2022-07-12T04:29:01;6.63;;;4.80;;
37309;SDS011;23195;47.744;7.358;2022-07-12T04:31:27;5.53;;;4.53;;
37309;SDS011;23195;47.744;7.358;2022-07-12T04:33:52;5.67;;;4.90;;
37309;SDS011;23195;47.744;7.358;2022-07-12T04:36:18;5.53;;;4.37;;
37309;SDS011;23195;47.744;7.358;2022-07-12T04:38:44;4.97;;;4.40;;
37309;SDS011;23195;47.744;7.358;2022-07-12T04:41:09;5.60;;;4.67;;
37309;SDS011;23195;47.744;7.358;2022-07-12T04:43:37;4.70;;;4.30;;
37309;SDS011;23195;47.744;7.358;2022-07-12T04:46:06;4.90;;;4.33;;
37309;SDS011;23195;47.744;7.358;2022-07-12T04:48:35;7.13;;;4.80;;
37309;SDS011;23195;47.744;7.358;2022-07-12T04:51:01;5.20;;;4.20;;
37309;SDS011;23195;47.744;7.358;2022-07-12T04:53:28;6.20;;;4.50;;
37309;SDS011;23195;47.744;7.358;2022-07-12T04:55:54;7.50;;;4.80;;
37309;SDS011;23195;47.744;7.358;2022-07-12T04:58:20;8.60;;;4.83;;
37309;SDS011;23195;47.744;7.358;2022-07-12T05:00:47;6.93;;;4.67;;
37309;SDS011;23195;47.744;7.358;2022-07-12T05:03:13;5.63;;;4.77;;
37309;SDS011;23195;47.744;7.358;2022-07-12T05:05:39;5.30;;;4.30;;
37309;SDS011;23195;47.744;7.358;2022-07-12T05:08:05;11.33;;;4.70;;
37309;SDS011;23195;47.744;7.358;2022-07-12T05:10:31;4.50;;;4.10;;
37309;SDS011;23195;47.744;7.358;2022-07-12T05:12:56;7.10;;;4.00;;
37309;SDS011;23195;47.744;7.358;2022-07-12T05:15:22;6.00;;;4.13;;
37309;SDS011;23195;47.744;7.358;2022-07-12T05:17:48;6.53;;;4.20;;
37309;SDS011;23195;47.744;7.358;2022-07-12T05:20:14;5.57;;;4.10;;
37309;SDS011;23195;47.744;7.358;2022-07-12T05:22:40;8.90;;;4.27;;
37309;SDS011;23195;47.744;7.358;2022-07-12T05:25:08;13.57;;;4.17;;
37309;SDS011;23195;47.744;7.358;2022-07-12T05:27:35;9.93;;;4.50;;
37309;SDS011;23195;47.744;7.358;2022-07-12T05:30:01;12.90;;;4.10;;
37309;SDS011;23195;47.744;7.358;2022-07-12T05:32:28;13.57;;;4.43;;
37309;SDS011;23195;47.744;7.358;2022-07-12T05:34:54;8.53;;;4.30;;
37309;SDS011;23195;47.744;7.358;2022-07-12T05:37:20;5.10;;;3.87;;
37309;SDS011;23195;47.744;7.358;2022-07-12T05:39:48;8.17;;;4.00;;
37309;SDS011;23195;47.744;7.358;2022-07-12T05:42:17;7.23;;;3.90;;
37309;SDS011;23195;47.744;7.358;2022-07-12T05:44:44;9.63;;;4.10;;
37309;SDS011;23195;47.744;7.358;2022-07-12T05:47:09;5.03;;;4.07;;
37309;SDS011;23195;47.744;7.358;2022-07-12T05:49:35;10.90;;;3.93;;
37309;SDS011;23195;47.744;7.358;2022-07-12T05:52:04;9.40;;;4.33;;
37309;SDS011;23195;47.744;7.358;2022-07-12T05:54:48;10.53;;;4.27;;
37309;SDS011;23195;47.744;7.358;2022-07-12T05:57:15;7.67;;;4.10;;
37309;SDS011;23195;47.744;7.358;2022-07-12T05:59:45;9.23;;;4.00;;
37309;SDS011;23195;47.744;7.358;2022-07-12T06:02:12;5.70;;;3.73;;
37309;SDS011;23195;47.744;7.358;2022-07-12T06:04:40;5.67;;;3.60;;
37309;SDS011;23195;47.744;7.358;2022-07-12T06:07:06;8.17;;;4.50;;
37309;SDS011;23195;47.744;7.358;2022-07-12T06:09:32;13.50;;;4.63;;
37309;SDS011;23195;47.744;7.358;2022-07-12T06:11:57;6.90;;;4.40;;
37309;SDS011;23195;47.744;7.358;2022-07-12T06:14:23;11.07;;;4.13;;
37309;SDS011;23195;47.744;7.358;2022-07-12T06:16:49;12.80;;;4.00;;
37309;SDS011;23195;47.744;7.358;2022-07-12T06:19:15;7.23;;;3.60;;
37309;SDS011;23195;47.744;7.358;2022-07-12T06:21:41;12.07;;;4.10;;
37309;SDS011;23195;47.744;7.358;2022-07-12T06:24:07;10.97;;;4.10;;
37309;SDS011;23195;47.744;7.358;2022-07-12T06:26:32;13.43;;;4.17;;
37309;SDS011;23195;47.744;7.358;2022-07-12T06:28:58;5.90;;;3.67;;
37309;SDS011;23195;47.744;7.358;2022-07-12T06:31:24;5.57;;;3.57;;
37309;SDS011;23195;47.744;7.358;2022-07-12T06:33:50;13.83;;;4.07;;
37309;SDS011;23195;47.744;7.358;2022-07-12T06:36:16;10.63;;;3.87;;
37309;SDS011;23195;47.744;7.358;2022-07-12T06:38:42;6.63;;;3.50;;
37309;SDS011;23195;47.744;7.358;2022-07-12T06:41:08;7.73;;;3.70;;
37309;SDS011;23195;47.744;7.358;2022-07-12T06:43:34;9.17;;;3.93;;
37309;SDS011;23195;47.744;7.358;2022-07-12T06:45:59;8.37;;;3.93;;
37309;SDS011;23195;47.744;7.358;2022-07-12T06:48:28;4.17;;;3.63;;
37309;SDS011;23195;47.744;7.358;2022-07-12T06:50:53;8.23;;;3.83;;
37309;SDS011;23195;47.744;7.358;2022-07-12T06:53:19;5.63;;;3.50;;
37309;SDS011;23195;47.744;7.358;2022-07-12T06:55:45;10.40;;;4.27;;
37309;SDS011;23195;47.744;7.358;2022-07-12T06:58:11;8.83;;;3.80;;
37309;SDS011;23195;47.744;7.358;2022-07-12T07:00:39;6.30;;;3.60;;
37309;SDS011;23195;47.744;7.358;2022-07-12T07:03:05;8.13;;;3.43;;
37309;SDS011;23195;47.744;7.358;2022-07-12T07:05:31;12.43;;;3.50;;
37309;SDS011;23195;47.744;7.358;2022-07-12T07:07:57;4.40;;;3.37;;
37309;SDS011;23195;47.744;7.358;2022-07-12T07:10:23;10.60;;;3.53;;
37309;SDS011;23195;47.744;7.358;2022-07-12T07:12:48;4.93;;;2.97;;
37309;SDS011;23195;47.744;7.358;2022-07-12T07:15:14;9.47;;;3.60;;
37309;SDS011;23195;47.744;7.358;2022-07-12T07:17:41;5.77;;;3.20;;
37309;SDS011;23195;47.744;7.358;2022-07-12T07:20:08;4.00;;;3.50;;
37309;SDS011;23195;47.744;7.358;2022-07-12T07:22:35;6.33;;;3.07;;
37309;SDS011;23195;47.744;7.358;2022-07-12T07:25:01;8.57;;;3.40;;
37309;SDS011;23195;47.744;7.358;2022-07-12T07:27:27;4.37;;;3.03;;
37309;SDS011;23195;47.744;7.358;2022-07-12T07:29:52;3.73;;;2.97;;
37309;SDS011;23195;47.744;7.358;2022-07-12T07:32:42;5.37;;;2.97;;
37309;SDS011;23195;47.744;7.358;2022-07-12T07:35:10;4.67;;;3.07;;
37309;SDS011;23195;47.744;7.358;2022-07-12T07:37:35;9.17;;;6.07;;
37309;SDS011;23195;47.744;7.358;2022-07-12T07:40:02;4.57;;;3.20;;
37309;SDS011;23195;47.744;7.358;2022-07-12T07:42:29;5.37;;;3.10;;
37309;SDS011;23195;47.744;7.358;2022-07-12T07:44:55;3.07;;;2.87;;
37309;SDS011;23195;47.744;7.358;2022-07-12T07:47:22;3.07;;;2.80;;
37309;SDS011;23195;47.744;7.358;2022-07-12T07:49:54;3.07;;;2.87;;
37309;SDS011;23195;47.744;7.358;2022-07-12T07:52:20;5.00;;;2.87;;
37309;SDS011;23195;47.744;7.358;2022-07-12T07:54:54;3.73;;;2.97;;
37309;SDS011;23195;47.744;7.358;2022-07-12T07:57:21;8.87;;;2.80;;
37309;SDS011;23195;47.744;7.358;2022-07-12T07:59:46;4.37;;;2.67;;
37309;SDS011;23195;47.744;7.358;2022-07-12T08:02:15;3.50;;;2.80;;
37309;SDS011;23195;47.744;7.358;2022-07-12T08:04:44;8.83;;;2.80;;
37309;SDS011;23195;47.744;7.358;2022-07-12T08:07:20;5.87;;;2.90;;
37309;SDS011;23195;47.744;7.358;2022-07-12T08:09:47;4.37;;;2.43;;
37309;SDS011;23195;47.744;7.358;2022-07-12T08:12:13;4.43;;;2.40;;
37309;SDS011;23195;47.744;7.358;2022-07-12T08:14:39;9.13;;;2.67;;
37309;SDS011;23195;47.744;7.358;2022-07-12T08:17:05;10.07;;;3.23;;
37309;SDS011;23195;47.744;7.358;2022-07-12T08:19:31;5.53;;;2.83;;
37309;SDS011;23195;47.744;7.358;2022-07-12T08:21:57;3.87;;;2.63;;
37309;SDS011;23195;47.744;7.358;2022-07-12T08:24:22;5.07;;;2.63;;
37309;SDS011;23195;47.744;7.358;2022-07-12T08:26:48;3.33;;;2.47;;
37309;SDS011;23195;47.744;7.358;2022-07-12T08:29:15;2.43;;;2.23;;
37309;SDS011;23195;47.744;7.358;2022-07-12T08:31:41;12.10;;;2.90;;
37309;SDS011;23195;47.744;7.358;2022-07-12T08:34:07;7.10;;;3.00;;
37309;SDS011;23195;47.744;7.358;2022-07-12T08:36:32;2.40;;;2.20;;
37309;SDS011;23195;47.744;7.358;2022-07-12T08:38:58;2.37;;;2.17;;
37309;SDS011;23195;47.744;7.358;2022-07-12T08:41:24;5.17;;;2.40;;
37309;SDS011;23195;47.744;7.358;2022-07-12T08:43:50;2.30;;;2.10;;
37309;SDS011;23195;47.744;7.358;2022-07-12T08:46:16;5.03;;;2.33;;
37309;SDS011;23195;47.744;7.358;2022-07-12T08:48:42;5.13;;;2.60;;
37309;SDS011;23195;47.744;7.358;2022-07-12T08:51:12;7.03;;;2.40;;
37309;SDS011;23195;47.744;7.358;2022-07-12T08:53:40;2.40;;;2.00;;
37309;SDS011;23195;47.744;7.358;2022-07-12T08:56:08;3.07;;;2.27;;
37309;SDS011;23195;47.744;7.358;2022-07-12T09:01:54;3.03;;;2.00;;
37309;SDS011;23195;47.744;7.358;2022-07-12T09:04:21;2.03;;;1.90;;
37309;SDS011;23195;47.744;7.358;2022-07-12T09:06:52;2.40;;;1.60;;
37309;SDS011;23195;47.744;7.358;2022-07-12T09:09:30;5.50;;;1.97;;
37309;SDS011;23195;47.744;7.358;2022-07-12T09:11:58;4.80;;;2.23;;
37309;SDS011;23195;47.744;7.358;2022-07-12T09:14:24;3.00;;;1.90;;
37309;SDS011;23195;47.744;7.358;2022-07-12T09:19:34;4.37;;;1.90;;
37309;SDS011;23195;47.744;7.358;2022-07-12T09:22:00;1.80;;;1.70;;
37309;SDS011;23195;47.744;7.358;2022-07-12T09:24:27;5.37;;;1.90;;
37309;SDS011;23195;47.744;7.358;2022-07-12T09:26:56;2.70;;;2.00;;
37309;SDS011;23195;47.744;7.358;2022-07-12T09:29:25;2.93;;;1.70;;
37309;SDS011;23195;47.744;7.358;2022-07-12T09:31:51;2.57;;;1.67;;
37309;SDS011;23195;47.744;7.358;2022-07-12T09:34:37;4.63;;;1.80;;
37309;SDS011;23195;47.744;7.358;2022-07-12T09:37:24;5.43;;;1.83;;
37309;SDS011;23195;47.744;7.358;2022-07-12T09:39:53;4.27;;;1.90;;
37309;SDS011;23195;47.744;7.358;2022-07-12T09:42:20;3.27;;;1.90;;
37309;SDS011;23195;47.744;7.358;2022-07-12T09:44:47;3.07;;;2.40;;
37309;SDS011;23195;47.744;7.358;2022-07-12T09:47:14;8.37;;;1.77;;
37309;SDS011;23195;47.744;7.358;2022-07-12T09:49:44;5.60;;;2.00;;
37309;SDS011;23195;47.744;7.358;2022-07-12T09:52:20;4.70;;;1.67;;
37309;SDS011;23195;47.744;7.358;2022-07-12T09:54:49;2.50;;;1.80;;
37309;SDS011;23195;47.744;7.358;2022-07-12T09:57:20;2.63;;;1.90;;
37309;SDS011;23195;47.744;7.358;2022-07-12T09:59:57;3.23;;;2.30;;
37309;SDS011;23195;47.744;7.358;2022-07-12T10:02:25;2.30;;;2.10;;
37309;SDS011;23195;47.744;7.358;2022-07-12T10:04:51;9.33;;;2.00;;
37309;SDS011;23195;47.744;7.358;2022-07-12T10:07:18;2.67;;;2.37;;
37309;SDS011;23195;47.744;7.358;2022-07-12T10:09:46;2.93;;;2.00;;
37309;SDS011;23195;47.744;7.358;2022-07-12T10:12:16;2.23;;;1.80;;
37309;SDS011;23195;47.744;7.358;2022-07-12T10:14:44;4.70;;;1.60;;
37309;SDS011;23195;47.744;7.358;2022-07-12T10:17:10;2.17;;;1.90;;
37309;SDS011;23195;47.744;7.358;2022-07-12T10:19:38;1.97;;;1.87;;
37309;SDS011;23195;47.744;7.358;2022-07-12T10:22:04;6.20;;;1.90;;
37309;SDS011;23195;47.744;7.358;2022-07-12T10:29:45;4.60;;;1.87;;
37309;SDS011;23195;47.744;7.358;2022-07-12T10:32:21;2.13;;;1.93;;
37309;SDS011;23195;47.744;7.358;2022-07-12T10:35:05;3.40;;;2.00;;
37309;SDS011;23195;47.744;7.358;2022-07-12T10:37:33;7.47;;;2.33;;
37309;SDS011;23195;47.744;7.358;2022-07-12T10:45:33;3.27;;;1.80;;
37309;SDS011;23195;47.744;7.358;2022-07-12T10:48:06;2.33;;;1.80;;
37309;SDS011;23195;47.744;7.358;2022-07-12T10:58:44;3.40;;;1.70;;
37309;SDS011;23195;47.744;7.358;2022-07-12T11:01:23;2.80;;;1.93;;
37309;SDS011;23195;47.744;7.358;2022-07-12T11:04:06;1.97;;;1.83;;
37309;SDS011;23195;47.744;7.358;2022-07-12T11:06:36;3.10;;;2.00;;
37309;SDS011;23195;47.744;7.358;2022-07-12T11:09:08;2.37;;;1.97;;
37309;SDS011;23195;47.744;7.358;2022-07-12T11:11:42;3.40;;;2.00;;
37309;SDS011;23195;47.744;7.358;2022-07-12T11:14:10;7.17;;;2.37;;
37309;SDS011;23195;47.744;7.358;2022-07-12T11:16:45;5.13;;;2.40;;
37309;SDS011;23195;47.744;7.358;2022-07-12T11:19:12;3.97;;;2.10;;
37309;SDS011;23195;47.744;7.358;2022-07-12T11:21:39;3.57;;;2.40;;
37309;SDS011;23195;47.744;7.358;2022-07-12T11:24:20;8.00;;;2.23;;
37309;SDS011;23195;47.744;7.358;2022-07-12T11:26:50;5.97;;;2.20;;
37309;SDS011;23195;47.744;7.358;2022-07-12T11:29:17;3.57;;;2.00;;
37309;SDS011;23195;47.744;7.358;2022-07-12T11:31:43;3.77;;;1.93;;
37309;SDS011;23195;47.744;7.358;2022-07-12T11:34:20;5.40;;;1.97;;
37309;SDS011;23195;47.744;7.358;2022-07-12T11:36:56;4.50;;;1.90;;
37309;SDS011;23195;47.744;7.358;2022-07-12T11:39:56;2.47;;;2.10;;
37309;SDS011;23195;47.744;7.358;2022-07-12T11:42:16;2.30;;;2.07;;
37309;SDS011;23195;47.744;7.358;2022-07-12T11:44:46;3.47;;;1.97;;
37309;SDS011;23195;47.744;7.358;2022-07-12T11:47:15;3.60;;;2.00;;
37309;SDS011;23195;47.744;7.358;2022-07-12T11:50:00;3.73;;;1.93;;
37309;SDS011;23195;47.744;7.358;2022-07-12T11:52:25;3.73;;;1.97;;
37309;SDS011;23195;47.744;7.358;2022-07-12T11:54:52;6.47;;;2.20;;
37309;SDS011;23195;47.744;7.358;2022-07-12T11:57:19;3.63;;;2.10;;
37309;SDS011;23195;47.744;7.358;2022-07-12T11:59:46;2.37;;;2.17;;
37309;SDS011;23195;47.744;7.358;2022-07-12T12:02:13;2.30;;;2.20;;
37309;SDS011;23195;47.744;7.358;2022-07-12T12:04:44;5.10;;;2.20;;
37309;SDS011;23195;47.744;7.358;2022-07-12T12:07:11;2.07;;;1.83;;
37309;SDS011;23195;47.744;7.358;2022-07-12T12:10:00;3.00;;;2.30;;
37309;SDS011;23195;47.744;7.358;2022-07-12T12:15:26;2.30;;;2.10;;
37309;SDS011;23195;47.744;7.358;2022-07-12T12:20:24;3.57;;;2.10;;
37309;SDS011;23195;47.744;7.358;2022-07-12T12:22:52;5.57;;;2.00;;
37309;SDS011;23195;47.744;7.358;2022-07-12T12:25:20;6.57;;;2.40;;
37309;SDS011;23195;47.744;7.358;2022-07-12T12:30:14;3.70;;;2.20;;
37309;SDS011;23195;47.744;7.358;2022-07-12T12:32:52;2.20;;;2.00;;
37309;SDS011;23195;47.744;7.358;2022-07-12T12:35:29;5.03;;;2.37;;
37309;SDS011;23195;47.744;7.358;2022-07-12T12:38:00;2.30;;;2.10;;
37309;SDS011;23195;47.744;7.358;2022-07-12T12:40:30;6.07;;;2.50;;
37309;SDS011;23195;47.744;7.358;2022-07-12T12:43:10;2.70;;;1.97;;
37309;SDS011;23195;47.744;7.358;2022-07-12T12:45:53;2.40;;;2.20;;
37309;SDS011;23195;47.744;7.358;2022-07-12T12:48:27;5.20;;;2.60;;
37309;SDS011;23195;47.744;7.358;2022-07-12T12:51:09;2.90;;;2.60;;
37309;SDS011;23195;47.744;7.358;2022-07-12T12:53:36;3.17;;;2.20;;
37309;SDS011;23195;47.744;7.358;2022-07-12T12:56:07;5.90;;;2.20;;
37309;SDS011;23195;47.744;7.358;2022-07-12T12:58:38;2.70;;;2.20;;
37309;SDS011;23195;47.744;7.358;2022-07-12T13:01:05;5.03;;;2.67;;
37309;SDS011;23195;47.744;7.358;2022-07-12T13:03:32;3.40;;;2.40;;
37309;SDS011;23195;47.744;7.358;2022-07-12T13:05:59;3.83;;;2.30;;
37309;SDS011;23195;47.744;7.358;2022-07-12T13:08:26;4.27;;;2.40;;
37309;SDS011;23195;47.744;7.358;2022-07-12T13:10:53;2.77;;;2.27;;
37309;SDS011;23195;47.744;7.358;2022-07-12T13:13:38;2.90;;;2.33;;
37309;SDS011;23195;47.744;7.358;2022-07-12T13:16:05;3.07;;;2.33;;
37309;SDS011;23195;47.744;7.358;2022-07-12T13:18:31;3.20;;;2.37;;
37309;SDS011;23195;47.744;7.358;2022-07-12T13:20:57;4.17;;;2.37;;
37309;SDS011;23195;47.744;7.358;2022-07-12T13:23:24;5.63;;;2.20;;
37309;SDS011;23195;47.744;7.358;2022-07-12T13:25:49;4.47;;;2.30;;
37309;SDS011;23195;47.744;7.358;2022-07-12T13:28:15;5.13;;;2.20;;
37309;SDS011;23195;47.744;7.358;2022-07-12T13:30:41;4.50;;;2.17;;
37309;SDS011;23195;47.744;7.358;2022-07-12T13:33:07;2.60;;;2.40;;
37309;SDS011;23195;47.744;7.358;2022-07-12T13:35:33;5.67;;;2.30;;
37309;SDS011;23195;47.744;7.358;2022-07-12T13:38:01;5.27;;;2.10;;
37309;SDS011;23195;47.744;7.358;2022-07-12T13:40:27;4.00;;;2.30;;
37309;SDS011;23195;47.744;7.358;2022-07-12T13:42:53;4.70;;;2.40;;
37309;SDS011;23195;47.744;7.358;2022-07-12T13:45:20;4.80;;;2.33;;
37309;SDS011;23195;47.744;7.358;2022-07-12T13:47:48;5.83;;;2.27;;
37309;SDS011;23195;47.744;7.358;2022-07-12T13:50:15;4.20;;;2.43;;
37309;SDS011;23195;47.744;7.358;2022-07-12T13:52:45;9.97;;;2.73;;
37309;SDS011;23195;47.744;7.358;2022-07-12T13:55:13;5.50;;;2.30;;
37309;SDS011;23195;47.744;7.358;2022-07-12T13:57:40;2.30;;;2.10;;
37309;SDS011;23195;47.744;7.358;2022-07-12T14:00:10;3.60;;;2.37;;
37309;SDS011;23195;47.744;7.358;2022-07-12T14:02:39;5.03;;;2.40;;
37309;SDS011;23195;47.744;7.358;2022-07-12T14:05:10;3.50;;;2.20;;
37309;SDS011;23195;47.744;7.358;2022-07-12T14:07:37;4.87;;;2.53;;
37309;SDS011;23195;47.744;7.358;2022-07-12T14:10:04;2.70;;;2.27;;
37309;SDS011;23195;47.744;7.358;2022-07-12T14:12:31;2.33;;;2.20;;
37309;SDS011;23195;47.744;7.358;2022-07-12T14:14:57;4.37;;;2.20;;
37309;SDS011;23195;47.744;7.358;2022-07-12T14:17:44;2.60;;;2.40;;
37309;SDS011;23195;47.744;7.358;2022-07-12T14:20:12;3.77;;;2.27;;
37309;SDS011;23195;47.744;7.358;2022-07-12T14:22:40;4.07;;;2.10;;
37309;SDS011;23195;47.744;7.358;2022-07-12T14:25:07;5.83;;;2.50;;
37309;SDS011;23195;47.744;7.358;2022-07-12T14:27:34;4.10;;;2.40;;
37309;SDS011;23195;47.744;7.358;2022-07-12T14:30:00;2.77;;;2.13;;
37309;SDS011;23195;47.744;7.358;2022-07-12T14:32:27;5.17;;;2.50;;
37309;SDS011;23195;47.744;7.358;2022-07-12T14:34:53;3.17;;;2.40;;
37309;SDS011;23195;47.744;7.358;2022-07-12T14:37:21;3.10;;;2.20;;
37309;SDS011;23195;47.744;7.358;2022-07-12T14:39:47;2.13;;;1.90;;
37309;SDS011;23195;47.744;7.358;2022-07-12T14:42:16;4.60;;;2.10;;
37309;SDS011;23195;47.744;7.358;2022-07-12T14:44:42;3.07;;;2.37;;
37309;SDS011;23195;47.744;7.358;2022-07-12T14:47:08;2.97;;;2.20;;
37309;SDS011;23195;47.744;7.358;2022-07-12T14:49:35;3.13;;;2.40;;
37309;SDS011;23195;47.744;7.358;2022-07-12T14:52:02;2.83;;;2.40;;
37309;SDS011;23195;47.744;7.358;2022-07-12T14:54:34;3.00;;;2.33;;
37309;SDS011;23195;47.744;7.358;2022-07-12T14:57:00;5.50;;;2.20;;
37309;SDS011;23195;47.744;7.358;2022-07-12T14:59:26;2.67;;;2.47;;
37309;SDS011;23195;47.744;7.358;2022-07-12T15:01:52;2.67;;;2.30;;
37309;SDS011;23195;47.744;7.358;2022-07-12T15:04:18;3.47;;;2.50;;
37309;SDS011;23195;47.744;7.358;2022-07-12T15:06:44;2.63;;;1.87;;
37309;SDS011;23195;47.744;7.358;2022-07-12T15:09:11;2.53;;;2.30;;
37309;SDS011;23195;47.744;7.358;2022-07-12T15:11:37;2.60;;;1.73;;
37309;SDS011;23195;47.744;7.358;2022-07-12T15:14:03;3.23;;;2.00;;
37309;SDS011;23195;47.744;7.358;2022-07-12T15:16:29;2.27;;;2.07;;
37309;SDS011;23195;47.744;7.358;2022-07-12T15:18:57;5.93;;;2.10;;
37309;SDS011;23195;47.744;7.358;2022-07-12T15:21:27;3.23;;;2.13;;
37309;SDS011;23195;47.744;7.358;2022-07-12T15:23:52;2.00;;;1.90;;
37309;SDS011;23195;47.744;7.358;2022-07-12T15:26:18;3.63;;;2.03;;